Bradenton, Florida
Current Conditions -  °F | °C
As of 12:53 AM on Thursday 29 Jan 2015 (Local Time) from KSRQ Reporting Station
Clear Clear  
Wind Chill: 42°   Ceiling: Unl
Heat Index: 46°   Visibility: 10mi
Dew Point: 40°   Wind: 7mph
Humidity: 79%   Direction: 70°ENE
Pressure: 30.25"   Gusts: NA
Location:  27.5°N, 82.58°W
Report Text: KSRQ 290553Z 07006KT 10SM CLR 08/04 A3025 RMK AO2 SLP244 T00780044 10117 20078 50004
Loading
Personal Weather Stations






























Interactive Weather Map New forecast layout! Learn more

10-Day Weather Forecast

Advertisements
Track Severe Weather on mobile